createdAt,value
2018-12-12T00:00:08.099Z,101462.81
2018-12-12T00:02:34.061Z,101464.55
2018-12-12T00:05:00.049Z,101463.70
2018-12-12T00:07:26.234Z,101469.80
2018-12-12T00:09:52.278Z,101470.65
2018-12-12T00:12:18.266Z,101470.63
2018-12-12T00:14:44.274Z,101471.50
2018-12-12T00:17:10.288Z,101471.97
2018-12-12T00:19:43.204Z,101464.98
2018-12-12T00:22:09.211Z,101468.86
2018-12-12T00:24:35.171Z,101471.51
2018-12-12T00:27:01.184Z,101470.25
2018-12-12T00:29:27.147Z,101476.75
2018-12-12T00:31:53.134Z,101475.47
2018-12-12T00:34:19.117Z,101475.91
2018-12-12T00:36:45.073Z,101471.93
2018-12-12T00:39:11.091Z,101468.03
2018-12-12T00:41:37.033Z,101478.48
2018-12-12T00:44:03.008Z,101476.75
2018-12-12T00:46:29.083Z,101479.39
2018-12-12T00:48:55.184Z,101481.56
2018-12-12T00:51:21.205Z,101485.48
2018-12-12T00:53:47.148Z,101481.99
2018-12-12T00:56:13.154Z,101484.58
2018-12-12T00:58:39.849Z,101487.67
2018-12-12T01:01:05.901Z,101487.21
2018-12-12T01:03:32.346Z,101488.10
2018-12-12T01:05:58.338Z,101490.28
2018-12-12T01:08:24.316Z,101491.13
2018-12-12T01:10:52.324Z,101491.57
2018-12-12T01:13:18.327Z,101500.28
2018-12-12T01:15:44.818Z,101489.84
2018-12-12T01:18:10.806Z,101491.57
2018-12-12T01:20:36.788Z,101497.25
2018-12-12T01:23:02.798Z,101497.70
2018-12-12T01:25:28.785Z,101501.16
2018-12-12T01:27:54.775Z,101502.46
2018-12-12T01:30:22.225Z,101500.28
2018-12-12T01:32:48.181Z,101508.13
2018-12-12T01:35:14.173Z,101503.77
2018-12-12T01:37:40.156Z,101513.34
2018-12-12T01:40:06.102Z,101507.27
2018-12-12T01:42:32.105Z,101514.66
2018-12-12T01:44:58.716Z,101517.69
2018-12-12T01:47:24.710Z,101517.72
2018-12-12T01:49:50.673Z,101521.61
2018-12-12T01:52:16.816Z,101532.92
2018-12-12T01:54:42.795Z,101525.97
2018-12-12T01:57:08.756Z,101525.97
2018-12-12T01:59:34.746Z,101525.11
2018-12-12T02:02:00.722Z,101526.41
2018-12-12T02:04:26.720Z,101527.71
2018-12-12T02:06:52.684Z,101537.27
2018-12-12T02:09:18.683Z,101536.84
2018-12-12T02:11:44.654Z,101538.13
2018-12-12T02:14:10.652Z,101538.14
2018-12-12T02:16:36.608Z,101540.31
2018-12-12T02:19:02.629Z,101539.02
2018-12-12T02:21:28.570Z,101535.95
2018-12-12T02:23:54.552Z,101539.89
2018-12-12T02:26:20.518Z,101541.19
2018-12-12T02:28:46.590Z,101542.91
2018-12-12T02:31:12.685Z,101538.13
2018-12-12T02:33:38.676Z,101541.60
2018-12-12T02:36:04.644Z,101548.99
2018-12-12T02:38:30.704Z,101545.95
2018-12-12T02:40:56.661Z,101553.31
2018-12-12T02:43:22.665Z,101554.22
2018-12-12T02:45:48.702Z,101554.21
2018-12-12T02:48:15.322Z,101552.04
2018-12-12T02:50:41.407Z,101556.80
2018-12-12T02:53:07.394Z,101558.56
2018-12-12T02:55:33.383Z,101563.77
2018-12-12T02:57:59.340Z,101562.91
2018-12-12T03:00:26.329Z,101557.69
2018-12-12T03:02:52.299Z,101561.20
2018-12-12T03:05:25.257Z,101565.54
2018-12-12T03:07:51.236Z,101557.27
2018-12-12T03:10:17.265Z,101553.38
2018-12-12T03:12:43.239Z,101564.22
2018-12-12T03:15:09.208Z,101561.16
2018-12-12T03:17:35.285Z,101564.65
2018-12-12T03:20:01.256Z,101570.32
2018-12-12T03:22:27.265Z,101565.96
2018-12-12T03:24:53.221Z,101568.14
2018-12-12T03:27:19.235Z,101572.89
2018-12-12T03:29:45.417Z,101568.13
2018-12-12T03:32:11.584Z,101578.14
2018-12-12T03:34:37.662Z,101575.09
2018-12-12T03:37:03.661Z,101575.09
2018-12-12T03:39:29.858Z,101581.17
2018-12-12T03:41:55.979Z,101580.73
2018-12-12T03:44:21.948Z,101591.16
2018-12-12T03:46:47.938Z,101589.44
2018-12-12T03:49:13.994Z,101592.05
2018-12-12T03:51:39.968Z,101594.22
2018-12-12T03:54:05.966Z,101586.85
2018-12-12T03:56:32.059Z,101588.12
2018-12-12T03:58:58.002Z,101598.95
2018-12-12T04:01:24.019Z,101595.92
2018-12-12T04:03:50.008Z,101599.84
2018-12-12T04:06:16.135Z,101590.70
2018-12-12T04:08:42.125Z,101599.41
2018-12-12T04:11:08.091Z,101592.04
2018-12-12T04:13:34.194Z,101594.21
2018-12-12T04:16:00.198Z,101596.83
2018-12-12T04:18:26.204Z,101604.57
2018-12-12T04:20:52.292Z,101599.82
2018-12-12T04:23:19.435Z,101602.00
2018-12-12T04:25:45.479Z,101600.27
2018-12-12T04:28:11.547Z,101597.25
2018-12-12T04:30:37.542Z,101603.73
2018-12-12T04:33:03.519Z,101607.69
2018-12-12T04:35:36.513Z,101609.87
2018-12-12T04:38:02.516Z,101612.89
2018-12-12T04:40:28.487Z,101607.22
2018-12-12T04:42:54.473Z,101606.36
2018-12-12T04:45:20.458Z,101607.23
2018-12-12T04:47:46.455Z,101605.46
2018-12-12T04:50:12.427Z,101602.41
2018-12-12T04:52:38.442Z,101606.77
2018-12-12T04:55:04.441Z,101611.95
2018-12-12T04:57:30.556Z,101608.94
2018-12-12T04:59:56.529Z,101610.66
2018-12-12T05:02:24.628Z,101606.77
2018-12-12T05:04:51.154Z,101604.14
2018-12-12T05:07:17.152Z,101608.46
2018-12-12T05:09:43.145Z,101610.23
2018-12-12T05:12:09.104Z,101613.73
2018-12-12T05:14:35.100Z,101613.25
2018-12-12T05:17:01.081Z,101610.61
2018-12-12T05:19:27.025Z,101614.53
2018-12-12T05:21:53.787Z,101619.35
2018-12-12T05:24:19.743Z,101625.03
2018-12-12T05:26:45.745Z,101624.56
2018-12-12T05:29:11.747Z,101625.39
2018-12-12T05:31:37.745Z,101626.34
2018-12-12T05:34:03.742Z,101629.80
2018-12-12T05:36:29.708Z,101635.88
2018-12-12T05:38:55.696Z,101627.20
2018-12-12T05:41:21.650Z,101628.06
2018-12-12T05:43:47.633Z,101633.28
2018-12-12T05:46:13.619Z,101634.56
2018-12-12T05:48:39.576Z,101633.69
2018-12-12T05:51:05.576Z,101638.05
2018-12-12T05:53:31.554Z,101638.48
2018-12-12T05:56:02.686Z,101642.88
2018-12-12T05:58:29.063Z,101633.30
2018-12-12T06:00:55.067Z,101639.38
2018-12-12T06:03:21.063Z,101642.40
2018-12-12T06:05:47.596Z,101646.80
2018-12-12T06:08:13.633Z,101646.83
2018-12-12T06:10:39.580Z,101647.27
2018-12-12T06:13:05.576Z,101646.40
2018-12-12T06:15:32.527Z,101646.81
2018-12-12T06:17:58.509Z,101657.23
2018-12-12T06:20:24.523Z,101656.80
2018-12-12T06:22:50.471Z,101656.80
2018-12-12T06:25:16.476Z,101669.83
2018-12-12T06:27:42.429Z,101664.63
2018-12-12T06:30:08.419Z,101665.07
2018-12-12T06:32:35.660Z,101663.35
2018-12-12T06:35:01.934Z,101660.77
2018-12-12T06:37:27.899Z,101659.92
2018-12-12T06:39:53.852Z,101669.45
2018-12-12T06:42:19.844Z,101666.84
2018-12-12T06:44:45.813Z,101673.34
2018-12-12T06:47:11.848Z,101679.00
2018-12-12T06:49:37.822Z,101682.92
2018-12-12T06:52:03.793Z,101680.35
2018-12-12T06:54:29.789Z,101680.38
2018-12-12T06:56:55.732Z,101686.00
2018-12-12T06:59:21.730Z,101691.63
2018-12-12T07:01:47.959Z,101691.20
2018-12-12T07:04:13.955Z,101693.83
2018-12-12T07:06:40.006Z,101696.83
2018-12-12T07:09:06.292Z,101696.87
2018-12-12T07:11:32.302Z,101699.47
2018-12-12T07:13:58.276Z,101702.99
2018-12-12T07:16:24.330Z,101708.20
2018-12-12T07:18:50.288Z,101704.29
2018-12-12T07:21:16.292Z,101703.87
2018-12-12T07:23:42.274Z,101703.44
2018-12-12T07:26:08.293Z,101706.49
2018-12-12T07:28:34.256Z,101708.64
2018-12-12T07:31:00.270Z,101706.47
2018-12-12T07:33:26.281Z,101706.02
2018-12-12T07:35:52.297Z,101713.47
2018-12-12T07:38:18.316Z,101709.58
2018-12-12T07:40:44.291Z,101712.58
2018-12-12T07:43:10.296Z,101719.52
2018-12-12T07:45:36.305Z,101718.23
2018-12-12T07:48:02.287Z,101721.27
2018-12-12T07:50:28.295Z,101729.11
2018-12-12T07:52:54.263Z,101725.17
2018-12-12T07:55:20.398Z,101732.52
2018-12-12T07:57:46.493Z,101719.45
2018-12-12T08:00:12.481Z,101736.03
2018-12-12T08:02:38.481Z,101730.40
2018-12-12T08:05:04.551Z,101738.61
2018-12-12T08:07:30.553Z,101740.30
2018-12-12T08:09:56.535Z,101735.98
2018-12-12T08:12:22.543Z,101738.66
2018-12-12T08:14:48.528Z,101736.48
2018-12-12T08:17:14.546Z,101741.30
2018-12-12T08:19:40.508Z,101746.94
2018-12-12T08:22:06.516Z,101752.59
2018-12-12T08:24:32.508Z,101740.88
2018-12-12T08:26:58.570Z,101747.38
2018-12-12T08:29:24.635Z,101756.97
2018-12-12T08:31:50.590Z,101750.91
2018-12-12T08:34:16.588Z,101748.75
2018-12-12T08:36:42.584Z,101747.47
2018-12-12T08:39:08.592Z,101747.46
2018-12-12T08:41:34.568Z,101749.17
2018-12-12T08:44:00.544Z,101762.26
2018-12-12T08:46:26.576Z,101749.61
2018-12-12T08:48:52.528Z,101761.79
2018-12-12T08:51:18.530Z,101761.30
2018-12-12T08:53:44.507Z,101765.70
2018-12-12T08:56:17.516Z,101764.44
2018-12-12T08:58:43.560Z,101763.12
2018-12-12T09:01:09.615Z,101772.66
2018-12-12T09:03:35.567Z,101763.97
2018-12-12T09:06:01.601Z,101766.63
2018-12-12T09:08:27.573Z,101768.77
2018-12-12T09:10:53.657Z,101769.27
2018-12-12T09:13:19.724Z,101778.00
2018-12-12T09:15:45.737Z,101771.84
2018-12-12T09:18:11.829Z,101773.11
2018-12-12T09:20:37.822Z,101770.50
2018-12-12T09:23:03.764Z,101770.08
2018-12-12T09:25:29.768Z,101768.79
2018-12-12T09:27:55.742Z,101768.34
2018-12-12T09:30:21.788Z,101763.17
2018-12-12T09:32:47.768Z,101764.86
2018-12-12T09:35:13.770Z,101772.74
2018-12-12T09:37:39.752Z,101769.30
2018-12-12T09:40:05.779Z,101775.33
2018-12-12T09:42:31.739Z,101775.70
2018-12-12T09:44:57.730Z,101773.55
2018-12-12T09:47:24.658Z,101782.24
2018-12-12T09:49:50.665Z,101781.38
2018-12-12T09:52:16.743Z,101784.41
2018-12-12T09:54:42.826Z,101783.56
2018-12-12T09:57:08.890Z,101776.20
2018-12-12T09:59:36.230Z,101779.27
2018-12-12T10:02:02.458Z,101778.86
2018-12-12T10:04:28.464Z,101777.13
2018-12-12T10:06:54.446Z,101773.67
2018-12-12T10:09:20.973Z,101774.50
2018-12-12T10:11:46.920Z,101783.23
2018-12-12T10:14:12.965Z,101786.68
2018-12-12T10:16:38.929Z,101778.87
2018-12-12T10:19:04.912Z,101779.30
2018-12-12T10:21:30.882Z,101771.92
2018-12-12T10:23:56.846Z,101774.97
2018-12-12T10:26:22.800Z,101780.20
2018-12-12T10:28:48.816Z,101771.50
2018-12-12T10:31:14.786Z,101775.84
2018-12-12T10:33:40.744Z,101782.37
2018-12-12T10:36:06.730Z,101778.91
2018-12-12T10:38:33.336Z,101768.42
2018-12-12T10:40:59.566Z,101771.03
2018-12-12T10:43:25.532Z,101773.23
2018-12-12T10:45:51.622Z,101775.39
2018-12-12T10:48:17.617Z,101774.98
2018-12-12T10:50:43.599Z,101778.91
2018-12-12T10:53:09.764Z,101780.18
2018-12-12T10:55:35.943Z,101773.20
2018-12-12T10:58:01.905Z,101776.28
2018-12-12T11:00:27.901Z,101778.88
2018-12-12T11:03:00.069Z,101772.80
2018-12-12T11:05:26.213Z,101778.45
2018-12-12T11:07:52.239Z,101777.15
2018-12-12T11:10:18.223Z,101776.28
2018-12-12T11:12:44.247Z,101772.80
2018-12-12T11:15:10.229Z,101775.84
2018-12-12T11:17:36.226Z,101770.60
2018-12-12T11:20:02.423Z,101767.12
2018-12-12T11:22:28.424Z,101764.06
2018-12-12T11:24:54.422Z,101768.87
2018-12-12T11:27:20.419Z,101767.11
2018-12-12T11:29:46.444Z,101766.22
2018-12-12T11:32:12.420Z,101767.14
2018-12-12T11:34:38.437Z,101760.13
2018-12-12T11:37:04.446Z,101765.36
2018-12-12T11:39:30.395Z,101760.10
2018-12-12T11:41:56.418Z,101764.94
2018-12-12T11:44:22.388Z,101764.05
2018-12-12T11:46:48.518Z,101764.93
2018-12-12T11:49:14.580Z,101757.09
2018-12-12T11:51:40.558Z,101758.42
2018-12-12T11:54:06.575Z,101757.98
2018-12-12T11:56:32.539Z,101752.29
2018-12-12T11:58:58.537Z,101757.11
2018-12-12T12:01:24.486Z,101759.67
2018-12-12T12:03:56.626Z,101757.06
2018-12-12T12:06:18.458Z,101757.52
2018-12-12T12:08:44.470Z,101756.19
2018-12-12T12:11:10.435Z,101752.27
2018-12-12T12:13:36.428Z,101761.46
2018-12-12T12:16:02.426Z,101755.34
2018-12-12T12:18:28.453Z,101754.39
2018-12-12T12:20:54.434Z,101757.98
2018-12-12T12:23:20.449Z,101762.75
2018-12-12T12:25:46.395Z,101765.41
2018-12-12T12:28:12.393Z,101757.54
2018-12-12T12:30:38.488Z,101758.86
2018-12-12T12:33:04.429Z,101755.37
2018-12-12T12:35:30.421Z,101757.07
2018-12-12T12:37:56.389Z,101754.89
2018-12-12T12:40:22.355Z,101750.09
2018-12-12T12:42:48.345Z,101752.70
2018-12-12T12:45:14.316Z,101747.38
2018-12-12T12:47:40.342Z,101749.13
2018-12-12T12:50:06.287Z,101732.42
2018-12-12T12:52:32.297Z,101733.38
2018-12-12T12:54:58.303Z,101736.84
2018-12-12T12:57:24.372Z,101736.03
2018-12-12T12:59:50.358Z,101741.66
2018-12-12T13:02:16.422Z,101735.97
2018-12-12T13:04:43.082Z,101736.84
2018-12-12T13:07:09.059Z,101746.44
2018-12-12T13:09:36.417Z,101741.30
2018-12-12T13:12:02.422Z,101745.20
2018-12-12T13:14:28.585Z,101742.16
2018-12-12T13:16:54.533Z,101748.70
2018-12-12T13:19:20.437Z,101743.46
2018-12-12T13:21:46.379Z,101745.25
2018-12-12T13:24:12.475Z,101740.47
2018-12-12T13:26:38.418Z,101746.11
2018-12-12T13:29:04.336Z,101745.23
2018-12-12T13:31:30.294Z,101742.58
2018-12-12T13:33:56.188Z,101737.34
2018-12-12T13:36:22.138Z,101735.12
2018-12-12T13:38:48.383Z,101737.77
2018-12-12T13:41:14.282Z,101734.73
2018-12-12T13:43:40.209Z,101733.45
2018-12-12T13:46:06.109Z,101729.92
2018-12-12T13:48:32.062Z,101736.84
2018-12-12T13:50:57.973Z,101736.48
2018-12-12T13:53:23.915Z,101736.09
2018-12-12T13:55:49.857Z,101742.20
2018-12-12T13:58:15.883Z,101735.19
2018-12-12T14:00:41.821Z,101735.61
2018-12-12T14:03:07.731Z,101742.15
2018-12-12T14:05:33.699Z,101742.63
2018-12-12T14:07:59.592Z,101744.82
2018-12-12T14:10:25.591Z,101748.30
2018-12-12T14:12:51.600Z,101741.80
2018-12-12T14:15:17.517Z,101740.91
2018-12-12T14:17:43.435Z,101737.73
2018-12-12T14:20:09.353Z,101741.20
2018-12-12T14:22:35.338Z,101745.65
2018-12-12T14:25:01.263Z,101744.80
2018-12-12T14:27:27.285Z,101742.21
2018-12-12T14:29:53.179Z,101748.33
2018-12-12T14:32:19.173Z,101740.91
2018-12-12T14:34:52.170Z,101736.58
2018-12-12T14:37:18.082Z,101742.27
2018-12-12T14:39:44.028Z,101745.75
2018-12-12T14:42:09.970Z,101748.31
2018-12-12T14:44:35.889Z,101748.29
2018-12-12T14:47:01.849Z,101749.20
2018-12-12T14:49:27.882Z,101750.03
2018-12-12T14:51:53.827Z,101743.95
2018-12-12T14:54:19.730Z,101747.38
2018-12-12T14:56:45.644Z,101737.45
2018-12-12T14:59:11.590Z,101743.52
2018-12-12T15:01:37.532Z,101739.64
2018-12-12T15:04:03.474Z,101733.02
2018-12-12T15:06:29.518Z,101735.21
2018-12-12T15:08:55.520Z,101736.57
2018-12-12T15:11:21.552Z,101735.23
2018-12-12T15:13:47.577Z,101739.99
2018-12-12T15:16:13.535Z,101730.00
2018-12-12T15:18:39.474Z,101738.73
2018-12-12T15:21:05.407Z,101729.61
2018-12-12T15:23:31.372Z,101742.23
2018-12-12T15:25:57.304Z,101733.09
2018-12-12T15:28:23.277Z,101736.61
2018-12-12T15:30:49.252Z,101729.63
2018-12-12T15:33:15.223Z,101737.94
2018-12-12T15:35:42.177Z,101736.61
2018-12-12T15:38:08.153Z,101733.97
2018-12-12T15:40:34.167Z,101731.84
2018-12-12T15:43:00.939Z,101729.64
2018-12-12T15:45:27.039Z,101731.81
2018-12-12T15:47:53.063Z,101732.69
2018-12-12T15:50:19.080Z,101737.05
2018-12-12T15:52:45.030Z,101732.68
2018-12-12T15:55:11.056Z,101730.52
2018-12-12T15:57:37.043Z,101735.77
2018-12-12T16:00:04.363Z,101734.44
2018-12-12T16:02:31.233Z,101736.17
2018-12-12T16:04:57.240Z,101736.61
2018-12-12T16:07:23.249Z,101733.58
2018-12-12T16:09:49.299Z,101736.19
2018-12-12T16:12:15.310Z,101743.15
2018-12-12T16:14:41.341Z,101739.23
2018-12-12T16:17:07.422Z,101745.78
2018-12-12T16:19:33.506Z,101732.25
2018-12-12T16:21:59.852Z,101731.38
2018-12-12T16:24:25.850Z,101733.55
2018-12-12T16:26:51.940Z,101742.25
2018-12-12T16:29:17.997Z,101737.91
2018-12-12T16:31:44.011Z,101739.64
2018-12-12T16:34:10.093Z,101737.04
2018-12-12T16:36:36.955Z,101739.66
2018-12-12T16:39:05.645Z,101737.88
2018-12-12T16:41:31.765Z,101740.51
2018-12-12T16:43:58.556Z,101739.64
2018-12-12T16:46:24.666Z,101742.73
2018-12-12T16:48:52.838Z,101737.94
2018-12-12T16:51:18.877Z,101733.16
2018-12-12T16:53:44.946Z,101734.47
2018-12-12T16:56:10.937Z,101738.36
2018-12-12T16:58:37.068Z,101730.11
2018-12-12T17:01:03.177Z,101731.41
2018-12-12T17:03:37.010Z,101735.75
2018-12-12T17:06:05.371Z,101724.87
2018-12-12T17:08:31.400Z,101733.58
2018-12-12T17:10:57.488Z,101731.83
2018-12-12T17:13:23.501Z,101734.44
2018-12-12T17:15:49.519Z,101726.61
2018-12-12T17:18:15.513Z,101734.02
2018-12-12T17:20:41.654Z,101725.30
2018-12-12T17:23:08.732Z,101734.02
2018-12-12T17:25:34.758Z,101733.60
2018-12-12T17:28:00.753Z,101732.72
2018-12-12T17:30:27.918Z,101732.70
2018-12-12T17:32:53.954Z,101729.23
2018-12-12T17:35:20.654Z,101734.46
2018-12-12T17:37:46.728Z,101729.23
2018-12-12T17:40:12.850Z,101727.50
2018-12-12T17:42:39.099Z,101732.73
2018-12-12T17:45:05.890Z,101732.71
2018-12-12T17:47:32.080Z,101737.08
2018-12-12T17:49:58.416Z,101729.21
2018-12-12T17:52:24.462Z,101732.28
2018-12-12T17:54:57.509Z,101724.45
2018-12-12T17:57:23.936Z,101734.45
2018-12-12T17:59:50.322Z,101734.03
2018-12-12T18:02:23.627Z,101734.47
2018-12-12T18:04:49.896Z,101733.59
2018-12-12T18:07:15.893Z,101733.59
2018-12-12T18:09:42.806Z,101735.34
2018-12-12T18:12:09.761Z,101736.19
2018-12-12T18:14:36.215Z,101734.03
2018-12-12T18:17:02.700Z,101736.19
2018-12-12T18:19:29.005Z,101731.83
2018-12-12T18:21:56.981Z,101739.67
2018-12-12T18:24:23.802Z,101724.00
2018-12-12T18:26:49.912Z,101736.20
2018-12-12T18:29:17.355Z,101738.83
2018-12-12T18:31:44.325Z,101738.37
2018-12-12T18:34:11.571Z,101742.75
2018-12-12T18:36:38.054Z,101740.11
2018-12-12T18:39:05.421Z,101736.19
2018-12-12T18:41:31.836Z,101740.11
2018-12-12T18:43:57.906Z,101740.57
2018-12-12T18:46:24.857Z,101747.52
2018-12-12T18:48:51.320Z,101747.51
2018-12-12T18:51:25.687Z,101750.14
2018-12-12T18:53:51.872Z,101750.94
2018-12-12T18:56:18.863Z,101754.47
2018-12-12T18:58:45.229Z,101744.90
2018-12-12T19:01:14.122Z,101754.41
2018-12-12T19:03:41.090Z,101757.94
2018-12-12T19:06:08.570Z,101748.23
2018-12-12T19:08:37.725Z,101748.23
2018-12-12T19:13:38.216Z,101756.57
2018-12-12T19:16:04.670Z,101760.88
2018-12-12T19:18:30.729Z,101755.52
2018-12-12T19:21:00.203Z,101756.16
2018-12-12T19:23:28.193Z,101755.34
2018-12-12T19:25:55.962Z,101763.64
2018-12-12T19:28:23.607Z,101757.98
2018-12-12T19:30:50.456Z,101768.39
2018-12-12T19:33:18.484Z,101766.67
2018-12-12T19:35:45.213Z,101780.14
2018-12-12T19:38:11.914Z,101774.80
2018-12-12T19:40:42.735Z,101780.34
2018-12-12T19:43:09.398Z,101777.84
2018-12-12T19:45:37.239Z,101770.95
2018-12-12T19:48:05.321Z,101769.60
2018-12-12T19:50:32.487Z,101774.00
2018-12-12T19:52:58.971Z,101776.80
2018-12-12T19:55:25.847Z,101785.00
2018-12-12T19:57:54.214Z,101782.86
2018-12-12T20:00:20.530Z,101779.98
2018-12-12T20:02:47.664Z,101786.94
2018-12-12T20:05:13.853Z,101781.12
2018-12-12T20:07:51.239Z,101785.13
2018-12-12T20:10:17.537Z,101783.36
2018-12-12T20:12:43.969Z,101781.99
2018-12-12T20:15:12.960Z,101789.83
2018-12-12T20:17:39.126Z,101787.29
2018-12-12T20:20:06.743Z,101788.89
2018-12-12T20:22:35.915Z,101792.58
2018-12-12T20:25:03.802Z,101792.53
2018-12-12T20:27:30.234Z,101791.70
2018-12-12T20:29:58.866Z,101799.91
2018-12-12T20:32:26.750Z,101797.40
2018-12-12T20:34:54.669Z,101803.52
2018-12-12T20:37:22.772Z,101802.36
2018-12-12T20:39:51.883Z,101810.40
2018-12-12T20:42:18.444Z,101814.70
2018-12-12T20:44:49.956Z,101820.55
2018-12-12T20:47:16.204Z,101822.36
2018-12-12T20:49:42.916Z,101819.77
2018-12-12T20:52:11.665Z,101817.94
2018-12-12T20:54:39.383Z,101820.73
2018-12-12T20:57:06.361Z,101818.16
2018-12-12T20:59:34.454Z,101825.51
2018-12-12T21:02:01.919Z,101824.01
2018-12-12T21:04:29.575Z,101822.71
2018-12-12T21:06:57.409Z,101827.36
2018-12-12T21:09:24.286Z,101823.52
2018-12-12T21:11:54.629Z,101830.56
2018-12-12T21:14:21.919Z,101825.42
2018-12-12T21:16:49.035Z,101827.23
2018-12-12T21:19:15.192Z,101822.83
2018-12-12T21:21:42.895Z,101818.56
2018-12-12T21:24:09.087Z,101824.88
2018-12-12T21:26:35.952Z,101813.70
2018-12-12T21:29:02.158Z,101813.32
2018-12-12T21:31:28.209Z,101814.48
2018-12-12T21:33:54.518Z,101821.23
2018-12-12T21:36:20.565Z,101817.40
2018-12-12T21:38:49.790Z,101815.14
2018-12-12T21:41:17.235Z,101813.09
2018-12-12T21:43:44.872Z,101825.02
2018-12-12T21:46:10.884Z,101821.69
2018-12-12T21:48:38.380Z,101811.81
2018-12-12T21:51:04.388Z,101817.95
2018-12-12T21:53:30.725Z,101813.23
2018-12-12T21:55:57.957Z,101811.14
2018-12-12T21:58:24.080Z,101814.08
2018-12-12T22:00:51.306Z,101809.83
2018-12-12T22:03:19.056Z,101815.03
2018-12-12T22:05:45.929Z,101819.28
2018-12-12T22:08:11.937Z,101816.03
2018-12-12T22:10:38.004Z,101819.84
2018-12-12T22:13:07.740Z,101820.45
2018-12-12T22:15:34.476Z,101828.38
2018-12-12T22:18:01.297Z,101827.52
2018-12-12T22:20:27.324Z,101822.75
2018-12-12T22:22:53.747Z,101813.82
2018-12-12T22:25:19.830Z,101823.41
2018-12-12T22:27:45.868Z,101817.22
2018-12-12T22:30:11.993Z,101820.55
2018-12-12T22:32:38.043Z,101817.80
2018-12-12T22:35:04.349Z,101817.41
2018-12-12T22:37:37.481Z,101825.83
2018-12-12T22:40:03.502Z,101815.41
2018-12-12T22:42:29.566Z,101816.57
2018-12-12T22:44:55.541Z,101814.33
2018-12-12T22:47:21.550Z,101824.59
2018-12-12T22:49:47.621Z,101820.78
2018-12-12T22:52:14.105Z,101824.84
2018-12-12T22:54:40.106Z,101817.05
2018-12-12T22:57:06.085Z,101819.91
2018-12-12T22:59:32.083Z,101821.31
2018-12-12T23:01:58.069Z,101813.98
2018-12-12T23:04:24.118Z,101819.91
2018-12-12T23:06:50.049Z,101815.57
2018-12-12T23:09:15.981Z,101817.83
2018-12-12T23:11:41.952Z,101816.37
2018-12-12T23:14:07.867Z,101805.67
2018-12-12T23:16:33.884Z,101801.95
2018-12-12T23:18:59.784Z,101798.47
2018-12-12T23:21:25.718Z,101797.49
2018-12-12T23:23:51.620Z,101803.89
2018-12-12T23:26:17.553Z,101798.53
2018-12-12T23:28:43.505Z,101795.44
2018-12-12T23:31:09.424Z,101797.28
2018-12-12T23:33:35.523Z,101798.98
2018-12-12T23:36:01.421Z,101799.34
2018-12-12T23:38:27.360Z,101788.58
2018-12-12T23:40:53.310Z,101784.41
2018-12-12T23:43:19.260Z,101787.13
2018-12-12T23:45:45.189Z,101778.47
2018-12-12T23:48:11.136Z,101785.45
2018-12-12T23:50:37.063Z,101779.31
2018-12-12T23:53:03.013Z,101786.98
2018-12-12T23:55:29.025Z,101782.55
2018-12-12T23:57:54.942Z,101787.34
